sensor_id;sensor_type;location;lat;lon;timestamp;P1;durP1;ratioP1;P2;durP2;ratioP2
3997;SDS011;61314;53.444;9.902;2023-11-19T00:00:19;3.92;;;3.53;;
3997;SDS011;61314;53.444;9.902;2023-11-19T00:02:46;2.80;;;2.70;;
3997;SDS011;61314;53.444;9.902;2023-11-19T00:05:13;3.42;;;3.13;;
3997;SDS011;61314;53.444;9.902;2023-11-19T00:07:41;2.88;;;2.65;;
3997;SDS011;61314;53.444;9.902;2023-11-19T00:10:09;2.70;;;2.50;;
3997;SDS011;61314;53.444;9.902;2023-11-19T00:12:37;3.20;;;3.03;;
3997;SDS011;61314;53.444;9.902;2023-11-19T00:15:06;2.63;;;2.20;;
3997;SDS011;61314;53.444;9.902;2023-11-19T00:17:38;2.80;;;2.30;;
3997;SDS011;61314;53.444;9.902;2023-11-19T00:20:15;2.70;;;2.50;;
3997;SDS011;61314;53.444;9.902;2023-11-19T00:22:42;1.80;;;1.70;;
3997;SDS011;61314;53.444;9.902;2023-11-19T00:25:12;6.28;;;2.30;;
3997;SDS011;61314;53.444;9.902;2023-11-19T00:27:39;2.03;;;1.83;;
3997;SDS011;61314;53.444;9.902;2023-11-19T00:30:07;6.28;;;2.08;;
3997;SDS011;61314;53.444;9.902;2023-11-19T00:32:34;2.30;;;2.10;;
3997;SDS011;61314;53.444;9.902;2023-11-19T00:35:02;2.15;;;1.95;;
3997;SDS011;61314;53.444;9.902;2023-11-19T00:37:30;1.80;;;1.67;;
3997;SDS011;61314;53.444;9.902;2023-11-19T00:39:57;1.67;;;1.58;;
3997;SDS011;61314;53.444;9.902;2023-11-19T00:42:24;1.75;;;1.65;;
3997;SDS011;61314;53.444;9.902;2023-11-19T00:44:52;1.70;;;1.60;;
3997;SDS011;61314;53.444;9.902;2023-11-19T00:47:20;1.67;;;1.58;;
3997;SDS011;61314;53.444;9.902;2023-11-19T00:49:47;1.40;;;1.30;;
3997;SDS011;61314;53.444;9.902;2023-11-19T00:52:15;1.70;;;1.60;;
3997;SDS011;61314;53.444;9.902;2023-11-19T00:54:43;1.45;;;1.35;;
3997;SDS011;61314;53.444;9.902;2023-11-19T00:57:10;1.98;;;1.38;;
3997;SDS011;61314;53.444;9.902;2023-11-19T00:59:37;1.30;;;1.20;;
3997;SDS011;61314;53.444;9.902;2023-11-19T01:02:04;1.27;;;1.17;;
3997;SDS011;61314;53.444;9.902;2023-11-19T01:04:35;1.65;;;1.55;;
3997;SDS011;61314;53.444;9.902;2023-11-19T01:07:03;1.42;;;1.30;;
3997;SDS011;61314;53.444;9.902;2023-11-19T01:09:31;1.33;;;1.23;;
3997;SDS011;61314;53.444;9.902;2023-11-19T01:11:58;1.20;;;1.10;;
3997;SDS011;61314;53.444;9.902;2023-11-19T01:14:27;2.08;;;1.30;;
3997;SDS011;61314;53.444;9.902;2023-11-19T01:16:54;1.20;;;1.10;;
3997;SDS011;61314;53.444;9.902;2023-11-19T01:19:22;2.85;;;1.10;;
3997;SDS011;61314;53.444;9.902;2023-11-19T01:21:50;1.08;;;0.98;;
3997;SDS011;61314;53.444;9.902;2023-11-19T01:24:18;1.10;;;1.00;;
3997;SDS011;61314;53.444;9.902;2023-11-19T01:26:45;1.42;;;0.95;;
3997;SDS011;61314;53.444;9.902;2023-11-19T01:29:15;1.00;;;0.80;;
3997;SDS011;61314;53.444;9.902;2023-11-19T01:31:43;1.30;;;1.02;;
3997;SDS011;61314;53.444;9.902;2023-11-19T01:34:10;1.10;;;1.00;;
3997;SDS011;61314;53.444;9.902;2023-11-19T01:36:38;1.42;;;0.75;;
3997;SDS011;61314;53.444;9.902;2023-11-19T01:39:05;0.90;;;0.57;;
3997;SDS011;61314;53.444;9.902;2023-11-19T01:41:36;1.15;;;1.05;;
3997;SDS011;61314;53.444;9.902;2023-11-19T01:44:05;1.10;;;0.80;;
3997;SDS011;61314;53.444;9.902;2023-11-19T01:46:33;0.95;;;0.65;;
3997;SDS011;61314;53.444;9.902;2023-11-19T01:49:01;0.82;;;0.55;;
3997;SDS011;61314;53.444;9.902;2023-11-19T01:51:29;1.00;;;0.70;;
3997;SDS011;61314;53.444;9.902;2023-11-19T01:53:57;0.90;;;0.80;;
3997;SDS011;61314;53.444;9.902;2023-11-19T01:56:24;3.17;;;0.95;;
3997;SDS011;61314;53.444;9.902;2023-11-19T01:58:53;0.90;;;0.60;;
3997;SDS011;61314;53.444;9.902;2023-11-19T02:01:21;1.00;;;0.73;;
3997;SDS011;61314;53.444;9.902;2023-11-19T02:03:48;0.90;;;0.70;;
3997;SDS011;61314;53.444;9.902;2023-11-19T02:06:15;0.88;;;0.65;;
3997;SDS011;61314;53.444;9.902;2023-11-19T02:08:43;1.00;;;0.88;;
3997;SDS011;61314;53.444;9.902;2023-11-19T02:11:10;0.90;;;0.70;;
3997;SDS011;61314;53.444;9.902;2023-11-19T02:13:41;1.10;;;1.00;;
3997;SDS011;61314;53.444;9.902;2023-11-19T02:16:10;1.65;;;0.90;;
3997;SDS011;61314;53.444;9.902;2023-11-19T02:18:37;0.93;;;0.82;;
3997;SDS011;61314;53.444;9.902;2023-11-19T02:21:05;1.10;;;1.00;;
3997;SDS011;61314;53.444;9.902;2023-11-19T02:23:32;1.00;;;0.90;;
3997;SDS011;61314;53.444;9.902;2023-11-19T02:26:02;1.05;;;0.90;;
3997;SDS011;61314;53.444;9.902;2023-11-19T02:28:29;1.50;;;1.00;;
3997;SDS011;61314;53.444;9.902;2023-11-19T02:30:56;1.13;;;1.02;;
3997;SDS011;61314;53.444;9.902;2023-11-19T02:33:23;1.10;;;1.00;;
3997;SDS011;61314;53.444;9.902;2023-11-19T02:35:51;1.10;;;1.00;;
3997;SDS011;61314;53.444;9.902;2023-11-19T02:38:18;1.42;;;1.20;;
3997;SDS011;61314;53.444;9.902;2023-11-19T02:40:46;1.08;;;0.98;;
3997;SDS011;61314;53.444;9.902;2023-11-19T02:43:13;1.15;;;1.05;;
3997;SDS011;61314;53.444;9.902;2023-11-19T02:45:40;2.65;;;1.30;;
3997;SDS011;61314;53.444;9.902;2023-11-19T02:48:11;1.50;;;1.40;;
3997;SDS011;61314;53.444;9.902;2023-11-19T02:50:40;1.30;;;1.20;;
3997;SDS011;61314;53.444;9.902;2023-11-19T02:53:07;1.58;;;1.48;;
3997;SDS011;61314;53.444;9.902;2023-11-19T02:55:34;1.58;;;1.48;;
3997;SDS011;61314;53.444;9.902;2023-11-19T02:58:04;1.95;;;1.85;;
3997;SDS011;61314;53.444;9.902;2023-11-19T03:00:46;1.75;;;1.65;;
3997;SDS011;61314;53.444;9.902;2023-11-19T03:03:37;1.73;;;1.63;;
3997;SDS011;61314;53.444;9.902;2023-11-19T03:06:05;2.00;;;1.90;;
3997;SDS011;61314;53.444;9.902;2023-11-19T03:08:32;2.20;;;2.10;;
3997;SDS011;61314;53.444;9.902;2023-11-19T03:11:00;2.42;;;2.33;;
3997;SDS011;61314;53.444;9.902;2023-11-19T03:13:27;2.30;;;2.20;;
3997;SDS011;61314;53.444;9.902;2023-11-19T03:15:54;2.50;;;2.40;;
3997;SDS011;61314;53.444;9.902;2023-11-19T03:18:21;2.40;;;2.30;;
3997;SDS011;61314;53.444;9.902;2023-11-19T03:20:48;2.70;;;2.60;;
3997;SDS011;61314;53.444;9.902;2023-11-19T03:23:16;2.95;;;2.85;;
3997;SDS011;61314;53.444;9.902;2023-11-19T03:25:43;2.90;;;2.80;;
3997;SDS011;61314;53.444;9.902;2023-11-19T03:28:10;3.58;;;3.47;;
3997;SDS011;61314;53.444;9.902;2023-11-19T03:30:38;3.03;;;2.92;;
3997;SDS011;61314;53.444;9.902;2023-11-19T03:33:05;3.50;;;3.30;;
3997;SDS011;61314;53.444;9.902;2023-11-19T03:35:32;3.80;;;3.60;;
3997;SDS011;61314;53.444;9.902;2023-11-19T03:37:59;3.80;;;3.60;;
3997;SDS011;61314;53.444;9.902;2023-11-19T03:40:27;4.30;;;4.00;;
3997;SDS011;61314;53.444;9.902;2023-11-19T03:42:58;5.22;;;4.88;;
3997;SDS011;61314;53.444;9.902;2023-11-19T03:45:25;4.68;;;4.38;;
3997;SDS011;61314;53.444;9.902;2023-11-19T03:47:52;5.63;;;5.13;;
3997;SDS011;61314;53.444;9.902;2023-11-19T03:50:19;5.55;;;5.15;;
3997;SDS011;61314;53.444;9.902;2023-11-19T03:52:47;5.90;;;5.38;;
3997;SDS011;61314;53.444;9.902;2023-11-19T03:55:14;7.30;;;6.63;;
3997;SDS011;61314;53.444;9.902;2023-11-19T03:57:42;6.97;;;6.38;;
3997;SDS011;61314;53.444;9.902;2023-11-19T04:00:09;11.13;;;7.13;;
3997;SDS011;61314;53.444;9.902;2023-11-19T04:02:36;9.88;;;8.85;;
3997;SDS011;61314;53.444;9.902;2023-11-19T04:05:04;10.02;;;7.47;;
3997;SDS011;61314;53.444;9.902;2023-11-19T04:07:31;11.63;;;8.63;;
3997;SDS011;61314;53.444;9.902;2023-11-19T04:09:58;13.48;;;9.63;;
3997;SDS011;61314;53.444;9.902;2023-11-19T04:12:26;11.32;;;9.85;;
3997;SDS011;61314;53.444;9.902;2023-11-19T04:14:53;16.75;;;10.93;;
3997;SDS011;61314;53.444;9.902;2023-11-19T04:17:23;12.38;;;10.48;;
3997;SDS011;61314;53.444;9.902;2023-11-19T04:19:51;18.60;;;13.23;;
3997;SDS011;61314;53.444;9.902;2023-11-19T04:22:18;16.40;;;12.88;;
3997;SDS011;61314;53.444;9.902;2023-11-19T04:24:45;15.48;;;12.63;;
3997;SDS011;61314;53.444;9.902;2023-11-19T04:27:12;19.33;;;14.40;;
3997;SDS011;61314;53.444;9.902;2023-11-19T04:29:40;18.48;;;14.50;;
3997;SDS011;61314;53.444;9.902;2023-11-19T04:32:08;22.00;;;15.30;;
3997;SDS011;61314;53.444;9.902;2023-11-19T04:34:35;24.70;;;17.70;;
3997;SDS011;61314;53.444;9.902;2023-11-19T04:37:03;27.75;;;18.10;;
3997;SDS011;61314;53.444;9.902;2023-11-19T04:39:33;29.35;;;18.20;;
3997;SDS011;61314;53.444;9.902;2023-11-19T04:42:01;35.33;;;19.88;;
3997;SDS011;61314;53.444;9.902;2023-11-19T04:44:28;35.22;;;19.70;;
3997;SDS011;61314;53.444;9.902;2023-11-19T04:46:56;31.75;;;18.27;;
3997;SDS011;61314;53.444;9.902;2023-11-19T04:49:23;29.83;;;20.25;;
3997;SDS011;61314;53.444;9.902;2023-11-19T04:51:53;31.70;;;19.77;;
3997;SDS011;61314;53.444;9.902;2023-11-19T04:54:20;29.42;;;19.42;;
3997;SDS011;61314;53.444;9.902;2023-11-19T04:56:48;29.98;;;18.75;;
3997;SDS011;61314;53.444;9.902;2023-11-19T04:59:15;26.63;;;17.95;;
3997;SDS011;61314;53.444;9.902;2023-11-19T05:01:46;42.58;;;22.15;;
3997;SDS011;61314;53.444;9.902;2023-11-19T05:04:14;36.95;;;21.30;;
3997;SDS011;61314;53.444;9.902;2023-11-19T05:06:41;37.03;;;21.98;;
3997;SDS011;61314;53.444;9.902;2023-11-19T05:09:09;37.03;;;23.10;;
3997;SDS011;61314;53.444;9.902;2023-11-19T05:11:38;39.72;;;21.63;;
3997;SDS011;61314;53.444;9.902;2023-11-19T05:14:09;43.17;;;23.23;;
3997;SDS011;61314;53.444;9.902;2023-11-19T05:16:37;44.50;;;23.40;;
3997;SDS011;61314;53.444;9.902;2023-11-19T05:19:06;47.50;;;24.30;;
3997;SDS011;61314;53.444;9.902;2023-11-19T05:21:33;55.85;;;25.10;;
3997;SDS011;61314;53.444;9.902;2023-11-19T05:24:00;46.58;;;23.17;;
3997;SDS011;61314;53.444;9.902;2023-11-19T05:26:30;38.90;;;23.10;;
3997;SDS011;61314;53.444;9.902;2023-11-19T05:28:57;48.00;;;23.02;;
3997;SDS011;61314;53.444;9.902;2023-11-19T05:31:24;41.97;;;22.65;;
3997;SDS011;61314;53.444;9.902;2023-11-19T05:33:51;46.50;;;22.05;;
3997;SDS011;61314;53.444;9.902;2023-11-19T05:36:19;44.28;;;22.80;;
3997;SDS011;61314;53.444;9.902;2023-11-19T05:38:46;39.53;;;19.27;;
3997;SDS011;61314;53.444;9.902;2023-11-19T05:41:13;39.72;;;21.73;;
3997;SDS011;61314;53.444;9.902;2023-11-19T05:43:41;47.53;;;21.98;;
3997;SDS011;61314;53.444;9.902;2023-11-19T05:46:08;47.80;;;21.75;;
3997;SDS011;61314;53.444;9.902;2023-11-19T05:48:38;43.20;;;21.45;;
3997;SDS011;61314;53.444;9.902;2023-11-19T05:51:05;42.80;;;21.38;;
3997;SDS011;61314;53.444;9.902;2023-11-19T05:53:32;45.88;;;20.40;;
3997;SDS011;61314;53.444;9.902;2023-11-19T05:55:59;41.72;;;21.90;;
3997;SDS011;61314;53.444;9.902;2023-11-19T05:58:30;48.78;;;20.80;;
3997;SDS011;61314;53.444;9.902;2023-11-19T06:00:58;46.70;;;22.38;;
3997;SDS011;61314;53.444;9.902;2023-11-19T06:03:29;44.70;;;21.45;;
3997;SDS011;61314;53.444;9.902;2023-11-19T06:05:56;45.28;;;20.75;;
3997;SDS011;61314;53.444;9.902;2023-11-19T06:08:24;56.83;;;21.48;;
3997;SDS011;61314;53.444;9.902;2023-11-19T06:10:53;50.83;;;21.00;;
3997;SDS011;61314;53.444;9.902;2023-11-19T06:13:20;49.88;;;20.15;;
3997;SDS011;61314;53.444;9.902;2023-11-19T06:15:50;56.53;;;20.90;;
3997;SDS011;61314;53.444;9.902;2023-11-19T06:18:17;39.22;;;18.45;;
3997;SDS011;61314;53.444;9.902;2023-11-19T06:20:46;45.47;;;18.45;;
3997;SDS011;61314;53.444;9.902;2023-11-19T06:23:14;45.60;;;18.25;;
3997;SDS011;61314;53.444;9.902;2023-11-19T06:25:41;54.15;;;24.13;;
3997;SDS011;61314;53.444;9.902;2023-11-19T06:28:08;42.42;;;20.33;;
3997;SDS011;61314;53.444;9.902;2023-11-19T06:30:36;47.75;;;17.88;;
3997;SDS011;61314;53.444;9.902;2023-11-19T06:33:03;37.25;;;18.13;;
3997;SDS011;61314;53.444;9.902;2023-11-19T06:35:30;42.38;;;19.92;;
3997;SDS011;61314;53.444;9.902;2023-11-19T06:38:03;50.97;;;16.55;;
3997;SDS011;61314;53.444;9.902;2023-11-19T06:40:33;42.03;;;17.10;;
3997;SDS011;61314;53.444;9.902;2023-11-19T06:43:01;35.55;;;15.00;;
3997;SDS011;61314;53.444;9.902;2023-11-19T06:45:35;35.97;;;13.63;;
3997;SDS011;61314;53.444;9.902;2023-11-19T06:48:03;34.67;;;13.57;;
3997;SDS011;61314;53.444;9.902;2023-11-19T06:50:31;38.08;;;13.70;;
3997;SDS011;61314;53.444;9.902;2023-11-19T06:52:58;28.87;;;14.37;;
3997;SDS011;61314;53.444;9.902;2023-11-19T06:55:28;39.90;;;15.98;;
3997;SDS011;61314;53.444;9.902;2023-11-19T06:57:56;37.43;;;15.47;;
3997;SDS011;61314;53.444;9.902;2023-11-19T07:00:23;37.90;;;16.80;;
3997;SDS011;61314;53.444;9.902;2023-11-19T07:02:51;41.35;;;14.48;;
3997;SDS011;61314;53.444;9.902;2023-11-19T07:05:18;36.07;;;13.97;;
3997;SDS011;61314;53.444;9.902;2023-11-19T07:07:45;36.88;;;16.23;;
3997;SDS011;61314;53.444;9.902;2023-11-19T07:10:13;48.00;;;15.30;;
3997;SDS011;61314;53.444;9.902;2023-11-19T07:12:40;27.63;;;12.00;;
3997;SDS011;61314;53.444;9.902;2023-11-19T07:15:08;37.10;;;14.98;;
3997;SDS011;61314;53.444;9.902;2023-11-19T07:17:35;35.50;;;14.55;;
3997;SDS011;61314;53.444;9.902;2023-11-19T07:20:03;48.75;;;14.90;;
3997;SDS011;61314;53.444;9.902;2023-11-19T07:22:30;22.67;;;12.15;;
3997;SDS011;61314;53.444;9.902;2023-11-19T07:24:58;44.30;;;14.10;;
3997;SDS011;61314;53.444;9.902;2023-11-19T07:27:25;46.08;;;13.30;;
3997;SDS011;61314;53.444;9.902;2023-11-19T07:29:52;36.15;;;12.35;;
3997;SDS011;61314;53.444;9.902;2023-11-19T07:32:19;39.28;;;13.57;;
3997;SDS011;61314;53.444;9.902;2023-11-19T07:34:46;40.13;;;11.80;;
3997;SDS011;61314;53.444;9.902;2023-11-19T07:37:14;44.60;;;11.57;;
3997;SDS011;61314;53.444;9.902;2023-11-19T07:39:43;35.67;;;12.32;;
3997;SDS011;61314;53.444;9.902;2023-11-19T07:42:10;44.15;;;12.60;;
3997;SDS011;61314;53.444;9.902;2023-11-19T07:44:37;51.72;;;9.75;;
3997;SDS011;61314;53.444;9.902;2023-11-19T07:47:04;36.65;;;10.55;;
3997;SDS011;61314;53.444;9.902;2023-11-19T07:49:31;35.33;;;8.65;;
3997;SDS011;61314;53.444;9.902;2023-11-19T07:51:58;36.08;;;8.50;;
3997;SDS011;61314;53.444;9.902;2023-11-19T07:54:26;39.47;;;8.00;;
3997;SDS011;61314;53.444;9.902;2023-11-19T07:56:53;44.00;;;9.05;;
3997;SDS011;61314;53.444;9.902;2023-11-19T07:59:20;33.75;;;9.43;;
3997;SDS011;61314;53.444;9.902;2023-11-19T08:01:47;41.40;;;9.02;;
3997;SDS011;61314;53.444;9.902;2023-11-19T08:04:15;36.45;;;7.32;;
3997;SDS011;61314;53.444;9.902;2023-11-19T08:06:42;37.10;;;8.20;;
3997;SDS011;61314;53.444;9.902;2023-11-19T08:09:09;38.88;;;8.63;;
3997;SDS011;61314;53.444;9.902;2023-11-19T08:11:40;39.72;;;8.38;;
3997;SDS011;61314;53.444;9.902;2023-11-19T08:14:07;44.85;;;8.60;;
3997;SDS011;61314;53.444;9.902;2023-11-19T08:16:34;32.17;;;7.45;;
3997;SDS011;61314;53.444;9.902;2023-11-19T08:19:03;41.13;;;7.30;;
3997;SDS011;61314;53.444;9.902;2023-11-19T08:21:30;49.58;;;8.75;;
3997;SDS011;61314;53.444;9.902;2023-11-19T08:23:58;36.33;;;7.97;;
3997;SDS011;61314;53.444;9.902;2023-11-19T08:26:25;53.03;;;9.30;;
3997;SDS011;61314;53.444;9.902;2023-11-19T08:28:52;42.33;;;8.60;;
3997;SDS011;61314;53.444;9.902;2023-11-19T08:31:19;39.75;;;6.45;;
3997;SDS011;61314;53.444;9.902;2023-11-19T08:33:46;38.65;;;6.60;;
3997;SDS011;61314;53.444;9.902;2023-11-19T08:36:17;38.20;;;5.88;;
3997;SDS011;61314;53.444;9.902;2023-11-19T08:38:44;37.70;;;7.70;;
3997;SDS011;61314;53.444;9.902;2023-11-19T08:41:12;33.25;;;6.00;;
3997;SDS011;61314;53.444;9.902;2023-11-19T08:43:39;27.90;;;6.53;;
3997;SDS011;61314;53.444;9.902;2023-11-19T08:46:11;28.80;;;5.88;;
3997;SDS011;61314;53.444;9.902;2023-11-19T08:48:38;35.13;;;6.50;;
3997;SDS011;61314;53.444;9.902;2023-11-19T08:51:06;27.23;;;6.17;;
3997;SDS011;61314;53.444;9.902;2023-11-19T08:53:33;27.43;;;6.30;;
3997;SDS011;61314;53.444;9.902;2023-11-19T08:56:00;42.90;;;6.47;;
3997;SDS011;61314;53.444;9.902;2023-11-19T08:58:29;46.73;;;7.97;;
3997;SDS011;61314;53.444;9.902;2023-11-19T09:00:57;53.43;;;9.73;;
3997;SDS011;61314;53.444;9.902;2023-11-19T09:03:24;49.23;;;7.30;;
3997;SDS011;61314;53.444;9.902;2023-11-19T09:05:56;39.93;;;7.77;;
3997;SDS011;61314;53.444;9.902;2023-11-19T09:08:23;47.23;;;7.77;;
3997;SDS011;61314;53.444;9.902;2023-11-19T09:10:51;48.50;;;7.37;;
3997;SDS011;61314;53.444;9.902;2023-11-19T09:13:18;49.50;;;6.97;;
3997;SDS011;61314;53.444;9.902;2023-11-19T09:15:45;41.78;;;6.82;;
3997;SDS011;61314;53.444;9.902;2023-11-19T09:18:12;58.10;;;8.20;;
3997;SDS011;61314;53.444;9.902;2023-11-19T09:20:39;37.60;;;7.43;;
3997;SDS011;61314;53.444;9.902;2023-11-19T09:23:07;37.90;;;6.30;;
3997;SDS011;61314;53.444;9.902;2023-11-19T09:25:35;45.27;;;8.43;;
3997;SDS011;61314;53.444;9.902;2023-11-19T09:28:05;39.50;;;7.17;;
3997;SDS011;61314;53.444;9.902;2023-11-19T09:30:34;36.93;;;6.93;;
3997;SDS011;61314;53.444;9.902;2023-11-19T09:33:01;38.93;;;6.40;;
3997;SDS011;61314;53.444;9.902;2023-11-19T09:35:29;46.47;;;8.33;;
3997;SDS011;61314;53.444;9.902;2023-11-19T09:37:56;53.38;;;10.30;;
3997;SDS011;61314;53.444;9.902;2023-11-19T09:40:26;43.67;;;9.50;;
3997;SDS011;61314;53.444;9.902;2023-11-19T09:42:54;44.27;;;7.80;;
3997;SDS011;61314;53.444;9.902;2023-11-19T09:45:21;39.33;;;7.37;;
3997;SDS011;61314;53.444;9.902;2023-11-19T09:47:49;39.47;;;7.72;;
3997;SDS011;61314;53.444;9.902;2023-11-19T09:50:19;36.88;;;7.35;;
3997;SDS011;61314;53.444;9.902;2023-11-19T09:52:47;42.58;;;6.15;;
3997;SDS011;61314;53.444;9.902;2023-11-19T09:55:14;47.70;;;9.23;;
3997;SDS011;61314;53.444;9.902;2023-11-19T09:57:41;25.98;;;7.20;;
3997;SDS011;61314;53.444;9.902;2023-11-19T10:00:10;41.97;;;7.07;;
3997;SDS011;61314;53.444;9.902;2023-11-19T10:02:38;55.30;;;8.35;;
3997;SDS011;61314;53.444;9.902;2023-11-19T10:05:06;49.38;;;9.18;;
3997;SDS011;61314;53.444;9.902;2023-11-19T10:07:34;48.65;;;7.38;;
3997;SDS011;61314;53.444;9.902;2023-11-19T10:10:02;45.15;;;7.80;;
3997;SDS011;61314;53.444;9.902;2023-11-19T10:12:30;38.37;;;6.13;;
3997;SDS011;61314;53.444;9.902;2023-11-19T10:14:57;61.78;;;6.97;;
3997;SDS011;61314;53.444;9.902;2023-11-19T10:17:34;44.50;;;7.78;;
3997;SDS011;61314;53.444;9.902;2023-11-19T10:20:01;51.88;;;7.40;;
3997;SDS011;61314;53.444;9.902;2023-11-19T10:22:29;39.00;;;5.90;;
3997;SDS011;61314;53.444;9.902;2023-11-19T10:24:56;48.90;;;7.50;;
3997;SDS011;61314;53.444;9.902;2023-11-19T10:27:24;42.63;;;7.20;;
3997;SDS011;61314;53.444;9.902;2023-11-19T10:29:52;46.65;;;7.30;;
3997;SDS011;61314;53.444;9.902;2023-11-19T10:32:19;60.10;;;7.70;;
3997;SDS011;61314;53.444;9.902;2023-11-19T10:34:52;46.63;;;7.93;;
3997;SDS011;61314;53.444;9.902;2023-11-19T10:37:28;31.55;;;5.57;;
3997;SDS011;61314;53.444;9.902;2023-11-19T10:39:58;28.75;;;5.47;;
3997;SDS011;61314;53.444;9.902;2023-11-19T10:42:25;51.58;;;7.45;;
3997;SDS011;61314;53.444;9.902;2023-11-19T10:44:52;42.88;;;7.32;;
3997;SDS011;61314;53.444;9.902;2023-11-19T10:47:19;37.22;;;8.30;;
3997;SDS011;61314;53.444;9.902;2023-11-19T10:50:04;62.15;;;7.82;;
3997;SDS011;61314;53.444;9.902;2023-11-19T10:52:32;39.83;;;7.72;;
3997;SDS011;61314;53.444;9.902;2023-11-19T10:55:00;42.88;;;7.20;;
3997;SDS011;61314;53.444;9.902;2023-11-19T10:57:28;53.72;;;8.10;;
3997;SDS011;61314;53.444;9.902;2023-11-19T11:00:00;45.97;;;7.90;;
3997;SDS011;61314;53.444;9.902;2023-11-19T11:02:28;44.97;;;6.25;;
3997;SDS011;61314;53.444;9.902;2023-11-19T11:04:57;47.20;;;6.90;;
3997;SDS011;61314;53.444;9.902;2023-11-19T11:07:25;35.00;;;7.90;;
3997;SDS011;61314;53.444;9.902;2023-11-19T11:10:05;44.33;;;7.72;;
3997;SDS011;61314;53.444;9.902;2023-11-19T11:12:34;47.22;;;9.45;;
3997;SDS011;61314;53.444;9.902;2023-11-19T11:15:04;42.50;;;7.20;;
3997;SDS011;61314;53.444;9.902;2023-11-19T11:17:32;29.73;;;6.27;;
3997;SDS011;61314;53.444;9.902;2023-11-19T11:20:01;44.78;;;6.95;;
3997;SDS011;61314;53.444;9.902;2023-11-19T11:22:29;38.33;;;7.10;;
3997;SDS011;61314;53.444;9.902;2023-11-19T11:25:24;32.40;;;6.40;;
3997;SDS011;61314;53.444;9.902;2023-11-19T11:27:56;43.75;;;6.70;;
3997;SDS011;61314;53.444;9.902;2023-11-19T11:33:26;38.47;;;6.57;;
3997;SDS011;61314;53.444;9.902;2023-11-19T11:38:28;49.40;;;7.60;;
3997;SDS011;61314;53.444;9.902;2023-11-19T11:49:02;51.03;;;6.65;;
3997;SDS011;61314;53.444;9.902;2023-11-19T11:57:00;39.42;;;7.07;;
3997;SDS011;61314;53.444;9.902;2023-11-19T11:59:47;41.35;;;6.85;;
3997;SDS011;61314;53.444;9.902;2023-11-19T12:02:16;35.88;;;7.72;;
3997;SDS011;61314;53.444;9.902;2023-11-19T12:04:46;31.15;;;5.60;;
3997;SDS011;61314;53.444;9.902;2023-11-19T12:07:16;36.28;;;7.32;;
3997;SDS011;61314;53.444;9.902;2023-11-19T12:09:47;36.80;;;6.65;;
3997;SDS011;61314;53.444;9.902;2023-11-19T12:15:00;47.03;;;6.93;;
3997;SDS011;61314;53.444;9.902;2023-11-19T12:20:02;28.20;;;5.82;;
3997;SDS011;61314;53.444;9.902;2023-11-19T12:22:29;35.47;;;6.35;;
3997;SDS011;61314;53.444;9.902;2023-11-19T12:24:57;37.57;;;8.90;;
3997;SDS011;61314;53.444;9.902;2023-11-19T12:27:25;44.87;;;6.33;;
3997;SDS011;61314;53.444;9.902;2023-11-19T12:29:52;38.72;;;6.28;;
3997;SDS011;61314;53.444;9.902;2023-11-19T12:32:20;33.23;;;5.97;;
3997;SDS011;61314;53.444;9.902;2023-11-19T12:34:47;36.60;;;6.32;;
3997;SDS011;61314;53.444;9.902;2023-11-19T12:37:14;38.40;;;6.18;;
3997;SDS011;61314;53.444;9.902;2023-11-19T12:39:42;39.10;;;6.88;;
3997;SDS011;61314;53.444;9.902;2023-11-19T12:42:09;28.33;;;5.73;;
3997;SDS011;61314;53.444;9.902;2023-11-19T12:44:38;30.80;;;6.10;;
3997;SDS011;61314;53.444;9.902;2023-11-19T12:47:06;25.85;;;5.60;;
3997;SDS011;61314;53.444;9.902;2023-11-19T12:49:33;39.15;;;8.45;;
3997;SDS011;61314;53.444;9.902;2023-11-19T12:52:01;27.40;;;5.37;;
3997;SDS011;61314;53.444;9.902;2023-11-19T12:54:32;42.83;;;7.28;;
3997;SDS011;61314;53.444;9.902;2023-11-19T12:56:59;40.25;;;7.45;;
3997;SDS011;61314;53.444;9.902;2023-11-19T12:59:26;40.13;;;5.77;;
3997;SDS011;61314;53.444;9.902;2023-11-19T13:01:54;30.77;;;5.88;;
3997;SDS011;61314;53.444;9.902;2023-11-19T13:04:21;44.53;;;7.30;;
3997;SDS011;61314;53.444;9.902;2023-11-19T13:06:50;31.83;;;7.03;;
3997;SDS011;61314;53.444;9.902;2023-11-19T13:09:23;32.23;;;7.53;;
3997;SDS011;61314;53.444;9.902;2023-11-19T13:11:51;29.97;;;6.60;;
3997;SDS011;61314;53.444;9.902;2023-11-19T13:14:18;39.97;;;6.57;;
3997;SDS011;61314;53.444;9.902;2023-11-19T13:16:45;33.35;;;6.50;;
3997;SDS011;61314;53.444;9.902;2023-11-19T13:19:16;39.38;;;7.30;;
3997;SDS011;61314;53.444;9.902;2023-11-19T13:21:45;47.45;;;6.07;;
3997;SDS011;61314;53.444;9.902;2023-11-19T13:24:14;43.10;;;8.05;;
3997;SDS011;61314;53.444;9.902;2023-11-19T13:26:41;40.90;;;6.10;;
3997;SDS011;61314;53.444;9.902;2023-11-19T13:29:08;38.22;;;6.75;;
3997;SDS011;61314;53.444;9.902;2023-11-19T13:31:36;32.75;;;5.90;;
3997;SDS011;61314;53.444;9.902;2023-11-19T13:34:04;34.40;;;7.03;;
3997;SDS011;61314;53.444;9.902;2023-11-19T13:36:33;35.13;;;6.43;;
3997;SDS011;61314;53.444;9.902;2023-11-19T13:39:01;33.33;;;6.78;;
3997;SDS011;61314;53.444;9.902;2023-11-19T13:41:28;40.05;;;6.75;;
3997;SDS011;61314;53.444;9.902;2023-11-19T13:43:55;40.10;;;5.77;;
3997;SDS011;61314;53.444;9.902;2023-11-19T13:46:22;32.70;;;7.70;;
3997;SDS011;61314;53.444;9.902;2023-11-19T13:48:50;33.20;;;6.55;;
3997;SDS011;61314;53.444;9.902;2023-11-19T13:51:17;54.67;;;7.83;;
3997;SDS011;61314;53.444;9.902;2023-11-19T13:53:44;40.03;;;6.70;;
3997;SDS011;61314;53.444;9.902;2023-11-19T13:56:14;40.80;;;6.97;;
3997;SDS011;61314;53.444;9.902;2023-11-19T13:58:41;36.38;;;6.10;;
3997;SDS011;61314;53.444;9.902;2023-11-19T14:01:08;42.57;;;6.47;;
3997;SDS011;61314;53.444;9.902;2023-11-19T14:03:36;36.03;;;5.93;;
3997;SDS011;61314;53.444;9.902;2023-11-19T14:06:03;41.58;;;7.50;;
3997;SDS011;61314;53.444;9.902;2023-11-19T14:08:30;31.23;;;6.10;;
3997;SDS011;61314;53.444;9.902;2023-11-19T14:10:57;27.35;;;5.65;;
3997;SDS011;61314;53.444;9.902;2023-11-19T14:13:25;33.57;;;6.47;;
3997;SDS011;61314;53.444;9.902;2023-11-19T14:15:52;32.60;;;6.33;;
3997;SDS011;61314;53.444;9.902;2023-11-19T14:18:19;42.93;;;6.87;;
3997;SDS011;61314;53.444;9.902;2023-11-19T14:20:46;27.13;;;5.37;;
3997;SDS011;61314;53.444;9.902;2023-11-19T14:23:13;25.70;;;6.67;;
3997;SDS011;61314;53.444;9.902;2023-11-19T14:25:40;31.17;;;5.33;;
3997;SDS011;61314;53.444;9.902;2023-11-19T14:28:08;32.75;;;5.88;;
3997;SDS011;61314;53.444;9.902;2023-11-19T14:30:35;35.65;;;6.30;;
3997;SDS011;61314;53.444;9.902;2023-11-19T14:33:02;26.13;;;6.83;;
3997;SDS011;61314;53.444;9.902;2023-11-19T14:35:30;30.20;;;7.03;;
3997;SDS011;61314;53.444;9.902;2023-11-19T14:37:59;30.23;;;5.73;;
3997;SDS011;61314;53.444;9.902;2023-11-19T14:40:26;32.42;;;6.45;;
3997;SDS011;61314;53.444;9.902;2023-11-19T14:42:56;31.00;;;6.07;;
3997;SDS011;61314;53.444;9.902;2023-11-19T14:45:23;24.10;;;5.75;;
3997;SDS011;61314;53.444;9.902;2023-11-19T14:47:50;34.35;;;5.32;;
3997;SDS011;61314;53.444;9.902;2023-11-19T14:50:19;21.80;;;5.28;;
3997;SDS011;61314;53.444;9.902;2023-11-19T14:52:46;36.63;;;7.47;;
3997;SDS011;61314;53.444;9.902;2023-11-19T14:55:13;28.08;;;6.07;;
3997;SDS011;61314;53.444;9.902;2023-11-19T14:57:40;37.07;;;7.50;;
3997;SDS011;61314;53.444;9.902;2023-11-19T15:00:14;32.93;;;5.60;;
3997;SDS011;61314;53.444;9.902;2023-11-19T15:02:41;27.30;;;5.97;;
3997;SDS011;61314;53.444;9.902;2023-11-19T15:05:08;29.90;;;6.07;;
3997;SDS011;61314;53.444;9.902;2023-11-19T15:07:36;23.80;;;4.60;;
3997;SDS011;61314;53.444;9.902;2023-11-19T15:10:04;20.40;;;4.70;;
3997;SDS011;61314;53.444;9.902;2023-11-19T15:12:36;29.05;;;4.88;;
3997;SDS011;61314;53.444;9.902;2023-11-19T15:15:06;31.40;;;4.43;;
3997;SDS011;61314;53.444;9.902;2023-11-19T15:17:34;29.00;;;4.50;;